Content
SEND FEEDBACK

Daily
Averages
Monthly
Summary
France

PARIS, FRANCE


Home > Europe > France
Elevation: 96 meters     Latitude: 48 44N     Longitude: 002 24E

WEATHER
 
SELECT A DAY
Number of Records: 331,598;   Date Range: 7/1/96 - 12/27/14
 
SHARE

PRINT THIS DATA

[ ← Previous Day ]
WEATHER ALMANAC - 31 JANUARY, 2013
[ Next Day → ]
[ °F ]   °C
Weather ElementAverageHighLow
Temperature7.6 °C11 °C (2:00 pm)4 °C (3:00 am)
Dewpoint5.3 °C9 °C (3:30 pm)2 °C (3:00 am)
Humidity85.1 %100 % (5:30 am)64 % (7:00 pm)
Barometer1021 hPa1025.1 hPa (1:00 am)1019 hPa (1:30 pm)
Wind Speed16.3 km/h27.8 km/h (11:30 am)
Wind Gust50.1 km/h (11:30 am)
Weather ElementAverage
Visibility9.5 km
Wind DirectionSW (221.3 °)

Weather ElementTotal
Precipitation---
Heating Degree Days10.8 (Base 18.3)
Averaged from 54 records on 31 January, 2013
WEATHER CONDITIONS BREAKOUT
WIND DIRECTION BREAKOUT
WEATHER BY HOUR - 31 JANUARY, 2013
[ °F ]   °C
Local TimeTemperatureDewpointHumidityBarometerVisibilityWind DirectionWind SpeedGust SpeedPrecipitationEventsConditions
12:30 AM7 °C3 °C76 %1023 hPaSSW (210°)7.4 km/hClear
1:00 AM6.1 °C2.8 °C72 %1025.1 hPa30.6 kmSouth (190°)7.4 km/h
1:00 AM6 °C3 °C81 %1024 hPaSouth (190°)7.4 km/hClear
1:30 AM6 °C3 °C81 %1024 hPaSSW (210°)7.4 km/hClear
2:00 AM5 °C3 °C87 %1024 hPaSouth (190°)7.4 km/hClear
2:30 AM5 °C3 °C87 %1024 hPaSSW (210°)13 km/hClear
3:00 AM4 °C2 °C87 %1024 hPaSSW (210°)11.1 km/hClear
3:30 AM4 °C3 °C93 %1024 hPaSSW (200°)13 km/hClear
4:00 AM5 °C3 °C87 %1023 hPaSSW (200°)13 km/hClear
4:30 AM4 °C3 °C93 %1023 hPaSouth (190°)9.3 km/hClear
5:00 AM4 °C3 °C93 %1023 hPaSSW (200°)13 km/hClear
5:30 AM4 °C4 °C100 %1023 hPaSouth (190°)11.1 km/hClear
6:00 AM4 °C4 °C100 %1022 hPa10 kmSouth (190°)11.1 km/hMostly Cloudy
6:30 AM5 °C4 °C93 %1022 hPa10 kmSouth (190°)16.7 km/hMostly Cloudy
7:00 AM4.4 °C4.4 °C99 %1022.4 hPa4.8 kmSSW (200°)20.4 km/hMist
7:00 AM5 °C4 °C93 %1022 hPa3.1 kmSSW (200°)20.4 km/hMostly Cloudy
7:30 AM5 °C4 °C93 %1022 hPa3.1 kmSSW (200°)18.5 km/hMostly Cloudy
8:00 AM5 °C5 °C100 %1022 hPa3.1 kmSSW (200°)14.8 km/hMostly Cloudy
8:30 AM6 °C5 °C93 %1022 hPa6.9 kmSSW (200°)18.5 km/hMostly Cloudy
8:34 AM6 °C5 °C93 %1022 hPa6.9 kmSSW (200°)16.7 km/hMostly Cloudy
9:00 AM6 °C5 °C93 %1022 hPa8 kmSW (220°)20.4 km/hMostly Cloudy
9:30 AM7 °C5 °C87 %1022 hPa10 kmSSW (210°)18.5 km/hOvercast
10:00 AM7 °C5 °C87 %1021 hPa10 kmSSW (200°)22.2 km/hOvercast
10:30 AM7 °C6 °C93 %1021 hPa10 kmSSW (210°)24.1 km/hMostly Cloudy
11:00 AM8 °C6 °C87 %1021 hPa10 kmSW (220°)24.1 km/hMostly Cloudy
11:30 AM8 °C6 °C87 %1021 hPa10 kmSW (230°)27.8 km/h50.1 km/hMostly Cloudy
12:00 PM9 °C6 °C82 %1021 hPa10 kmSW (220°)24.1 km/h48.1 km/hMostly Cloudy
12:47 PM10 °C7 °C82 %1020 hPa10 kmSW (230°)25.9 km/hMostly Cloudy
1:00 PM10 °C6.7 °C73 %1020.7 hPa14.5 kmSW (230°)25.9 km/hOvercast
1:00 PM10 °C7 °C82 %1020 hPa10 kmSW (230°)25.9 km/hMostly Cloudy
1:30 PM10 °C7 °C82 %1019 hPa10 kmWSW (240°)25.9 km/hMostly Cloudy
2:00 PM11 °C7 °C76 %1019 hPa10 kmWSW (240°)24.1 km/hMostly Cloudy
2:30 PM10 °C8 °C87 %1019 hPa9 kmWSW (250°)22.2 km/hLight Drizzle
2:39 PM10 °C8 °C87 %1019 hPa4 kmWSW (250°)22.2 km/hLight Drizzle
2:47 PM10 °C8 °C87 %1019 hPa4 kmWest (260°)18.5 km/hLight Drizzle
3:00 PM10 °C8 °C87 %1019 hPa3.5 kmWSW (250°)16.7 km/hLight Drizzle
3:30 PM10 °C9 °C94 %1019 hPa6.9 kmWest (270°)18.5 km/hLight Drizzle
4:00 PM10 °C9 °C94 %1019 hPaWest (260°)16.7 km/hClear
4:30 PM10 °C8 °C87 %1019 hPaWest (270°)20.4 km/hClear
5:00 PM10 °C7 °C82 %1019 hPaWSW (240°)16.7 km/hClear
5:30 PM10 °C6 °C76 %1019 hPaWSW (250°)14.8 km/hClear
6:00 PM10 °C5 °C71 %1019 hPaWSW (250°)14.8 km/hClear
6:30 PM9 °C5 °C76 %1019 hPaWest (260°)18.5 km/hClear
7:00 PM9.4 °C4.4 °C64 %1020.3 hPa25.7 kmWSW (250°)14.8 km/hPartly Cloudy
7:00 PM9 °C5 °C76 %1020 hPa10 kmWSW (250°)14.8 km/hMostly Cloudy
7:30 PM9 °C5 °C76 %1020 hPa10 kmSW (230°)13 km/hMostly Cloudy
8:00 PM9 °C5 °C76 %1020 hPa10 kmSW (230°)13 km/hMostly Cloudy
8:30 PM9 °C5 °C76 %1020 hPa10 kmWSW (240°)11.1 km/hMostly Cloudy
9:00 PM9 °C5 °C76 %1020 hPaSW (230°)11.1 km/hClear
9:30 PM9 °C5 °C76 %1020 hPa10 kmSW (220°)11.1 km/hMostly Cloudy
10:00 PM9 °C6 °C82 %1020 hPa10 kmSSW (210°)11.1 km/hMostly Cloudy
10:30 PM9 °C6 °C82 %1020 hPa10 kmSW (220°)11.1 km/hMostly Cloudy
11:00 PM9 °C7 °C87 %1019 hPa10 kmSSW (200°)9.3 km/hMostly Cloudy
11:30 PM9 °C7 °C87 %1019 hPa10 kmSSW (210°)9.3 km/hMostly Cloudy
Hourly data recorded from LFPO, located 0 kilometers away from Paris, France







STORIES FROM OUR PARTNERS